Latest Weather Observations for Sheoaks

IDV60901

Issued at 7:15 pm EDT Friday 28 November 2014 (issued every 10 minutes, with the page automatically refreshed every 10 minutes)

About weather observations | Map of Melbourne area stations | Latest observations for Melbourne area | Other Formats
Station Details ID: 087168 Name: SHEOAKS Lat: -37.91 Lon: 144.13 Height: 236.7 m
Data from the previous 72 hours. | See also: Recent months at Sheoaks
Date/Time
EDT
Tmp

°C
App
Tmp
°C
Dew
Point
°C
Rel
Hum
%
Delta-T

°C
Wind Press
QNH
hPa
Press
MSL
hPa
Rain
since
9 am
mm
Dir
 
Spd
km/h
Gust
km/h
Spd
kts
Gust
kts
28/07:00pm 15.7 11.7 8.2 61 3.8 ESE 19 26 10 14 1020.0 1019.8 0.0
28/06:30pm 17.0 13.4 8.4 57 4.4 SE 17 22 9 12 1019.7 1019.5 0.0
28/06:00pm 17.9 13.9 8.2 53 5.0 SE 19 26 10 14 1019.6 1019.4 0.0
28/05:30pm 18.9 14.9 8.3 50 5.5 SE 19 26 10 14 1019.6 1019.4 0.0
28/05:00pm 19.3 15.2 8.0 48 5.9 ESE 19 26 10 14 1019.6 1019.4 0.0
28/04:30pm 19.6 15.5 7.7 46 6.2 ESE 19 26 10 14 1019.9 1019.7 0.0
28/04:00pm 20.4 16.2 7.4 43 6.7 ESE 19 30 10 16 1020.0 1019.8 0.0
28/03:30pm 20.3 16.2 7.7 44 6.6 ESE 19 26 10 14 1020.3 1020.1 0.0
28/03:00pm 20.7 16.9 7.7 43 6.8 SE 17 24 9 13 1020.8 1020.5 0.0
28/02:30pm 19.9 16.2 7.9 46 6.3 ESE 17 24 9 13 1020.9 1020.6 0.0
28/02:00pm 20.1 16.5 6.8 42 6.8 ESE 15 26 8 14 1021.3 1021.0 0.0
28/01:30pm 20.0 16.5 7.4 44 6.5 SE 15 24 8 13 1021.9 1021.6 0.0
28/01:00pm 19.3 16.1 6.8 44 6.3 SE 13 22 7 12 1022.2 1021.9 0.0
28/12:30pm 18.9 15.4 7.4 47 5.9 SE 15 24 8 13 1022.5 1022.2 0.0
28/12:00pm 18.4 14.8 6.9 47 5.8 SE 15 20 8 11 1022.8 1022.6 0.0
28/11:30am 17.1 13.8 6.3 49 5.4 ESE 13 20 7 11 1022.9 1022.7 0.0
28/11:00am 16.6 13.5 7.3 54 4.7 E 13 22 7 12 1023.0 1022.8 0.0
28/10:30am 15.6 12.0 6.6 55 4.4 E 15 19 8 10 1023.5 1023.3 0.0
28/10:00am 14.7 11.6 7.3 61 3.7 ESE 13 24 7 13 1023.8 1023.6 0.0
28/09:30am 13.7 10.2 7.2 65 3.2 E 15 20 8 11 1024.3 1024.1 0.0
28/09:00am 12.8 9.3 7.0 68 2.8 ESE 15 19 8 10 1024.4 1024.2 0.0
28/08:30am 12.4 9.3 7.1 70 2.6 ESE 13 20 7 11 1024.2 1024.0 0.0
28/08:00am 12.0 9.2 7.1 72 2.4 ESE 11 19 6 10 1024.1 1023.9 0.0
28/07:30am 11.5 8.7 7.0 74 2.2 SE 11 17 6 9 1024.2 1024.0 0.0
28/07:00am 11.1 8.3 6.8 75 2.1 ESE 11 17 6 9 1024.0 1023.8 0.0
28/06:30am 10.9 8.1 6.8 76 2.0 SE 11 19 6 10 1023.6 1023.4 0.0
28/06:00am 10.8 7.9 6.7 76 2.0 SE 11 17 6 9 1023.4 1023.2 0.0
28/05:30am 10.8 8.4 7.1 78 1.8 SSE 9 15 5 8 1023.2 1023.0 0.0
28/05:00am 10.8 8.4 7.1 78 1.8 SE 9 15 5 8 1022.8 1022.6 0.0
28/04:30am 10.8 8.1 7.3 79 1.7 SE 11 15 6 8 1022.7 1022.5 0.0
28/04:00am 10.8 7.7 7.1 78 1.8 ESE 13 19 7 10 1022.6 1022.4 0.0
28/03:30am 10.7 8.0 7.2 79 1.7 ESE 11 15 6 8 1022.5 1022.2 0.0
28/03:00am 10.6 8.2 7.1 79 1.7 ESE 9 13 5 7 1022.6 1022.4 0.0
28/02:30am 10.5 7.0 7.0 79 1.7 ESE 15 22 8 12 1022.6 1022.4 0.0
28/02:00am 10.6 7.5 7.1 79 1.7 E 13 20 7 11 1022.8 1022.6 0.0
28/01:30am 10.6 7.5 7.1 79 1.7 E 13 20 7 11 1023.3 1023.1 0.0
28/01:00am 10.8 8.5 7.3 79 1.7 ESE 9 15 5 8 1023.6 1023.4 0.0
28/12:30am 10.8 6.9 7.1 78 1.8 ESE 17 22 9 12 1024.1 1023.9 0.0
28/12:00am 10.8 8.1 7.3 79 1.7 E 11 19 6 10 1024.3 1024.1 0.0
 
Date/Time
EDT
Tmp

°C
App
Tmp
°C
Dew
Point
°C
Rel
Hum
%
Delta-T

°C
Wind Press
QNH
hPa
Press
MSL
hPa
Rain
since
9 am
mm
Dir
 
Spd
km/h
Gust
km/h
Spd
kts
Gust
kts
27/11:30pm 10.8 8.1 7.5 80 1.6 ESE 11 17 6 9 1024.4 1024.2 0.0
27/11:00pm 10.8 7.4 7.5 80 1.6 ESE 15 20 8 11 1024.5 1024.3 0.0
27/10:30pm 10.4 7.8 7.8 84 1.3 ESE 11 19 6 10 1024.9 1024.6 0.0
27/10:00pm 10.2 7.6 7.6 84 1.3 ESE 11 15 6 8 1025.0 1024.7 0.0
27/09:30pm 9.8 7.5 7.4 85 1.2 ESE 9 13 5 7 1024.7 1024.5 0.0
27/09:00pm 10.3 7.6 7.2 81 1.5 ESE 11 15 6 8 1024.6 1024.4 0.0
27/08:30pm 11.0 8.2 6.9 76 2.0 ESE 11 15 6 8 1024.7 1024.5 0.0
27/08:00pm 12.0 8.0 6.7 70 2.5 ESE 17 24 9 13 1024.5 1024.3 0.0
27/07:30pm 13.2 9.7 7.0 66 3.0 SE 15 22 8 12 1024.4 1024.2 0.0
27/07:00pm 14.0 9.6 6.6 61 3.6 ESE 19 26 10 14 1024.4 1024.2 0.0
27/06:30pm 14.8 10.2 6.6 58 4.0 ESE 20 30 11 16 1024.4 1024.2 0.0
27/06:00pm 15.7 11.2 6.2 53 4.6 ESE 19 28 10 15 1024.3 1024.1 0.0
27/05:30pm 16.4 12.0 6.5 52 4.9 SE 19 30 10 16 1024.3 1024.1 0.0
27/05:00pm 16.7 12.5 5.9 49 5.3 SE 17 26 9 14 1024.5 1024.3 0.0
27/04:30pm 16.8 12.2 6.6 51 5.1 SE 20 30 11 16 1024.4 1024.2 0.0
27/04:00pm 16.8 12.2 5.4 47 5.5 SE 19 30 10 16 1024.7 1024.5 0.0
27/03:30pm 17.1 12.5 6.3 49 5.4 SE 20 32 11 17 1024.9 1024.6 0.0
27/03:00pm 16.9 12.3 6.4 50 5.2 SE 20 32 11 17 1025.1 1024.8 0.0
27/02:30pm 17.3 12.7 6.5 49 5.4 SE 20 33 11 18 1025.4 1025.1 0.0
27/02:00pm 16.7 12.0 6.2 50 5.2 E 20 28 11 15 1025.3 1025.0 0.0
27/01:30pm 16.5 11.9 6.3 51 5.0 SE 20 30 11 16 1025.4 1025.1 0.0
27/01:00pm 17.5 13.7 7.5 52 5.1 ESE 17 24 9 13 1025.4 1025.1 0.0
27/12:30pm 16.0 11.3 5.3 49 5.2 ESE 19 28 10 15 1025.6 1025.3 0.0
27/12:00pm 16.5 12.5 6.6 52 4.9 ESE 17 28 9 15 1025.9 1025.6 0.0
27/11:30am 16.1 12.1 6.8 54 4.6 SE 17 26 9 14 1026.0 1025.7 0.0
27/11:00am 15.2 11.7 7.0 58 4.1 SSE 15 22 8 12 1026.1 1025.8 0.0
27/10:30am 14.2 10.9 6.6 60 3.7 SSE 13 28 7 15 1026.3 1026.1 0.0
27/10:00am 14.2 10.0 5.8 57 4.0 SE 17 30 9 16 1026.4 1026.2 0.0
27/09:30am 13.2 9.8 5.9 61 3.5 SE 13 20 7 11 1026.3 1026.1 0.0
27/09:00am 12.3 9.3 6.1 66 2.9 SSE 11 17 6 9 1026.3 1026.1 1.6
27/08:30am 11.6 8.5 5.7 67 2.8 SSE 11 20 6 11 1026.3 1026.1 1.6
27/08:00am 11.2 8.9 5.5 68 2.6 SSE 7 11 4 6 1026.2 1025.9 1.6
27/07:30am 10.8 8.5 5.8 71 2.3 S 7 11 4 6 1026.0 1025.7 1.6
27/07:00am 10.4 8.0 5.4 71 2.3 S 7 11 4 6 1025.7 1025.4 1.6
27/06:30am 10.1 7.6 4.9 70 2.4 SSE 7 13 4 7 1025.4 1025.1 1.6
27/06:00am 10.0 7.6 5.2 72 2.2 SE 7 13 4 7 1025.1 1024.8 1.6
27/05:30am 10.1 8.0 5.7 74 2.0 SSE 6 9 3 5 1024.7 1024.5 1.6
27/05:00am 10.1 7.8 5.7 74 2.0 SSE 7 11 4 6 1024.4 1024.2 1.6
27/04:30am 10.0 7.4 6.0 76 1.9 SE 9 13 5 7 1024.2 1024.0 1.6
27/04:00am 10.1 8.0 5.7 74 2.0 SSE 6 9 3 5 1024.0 1023.8 1.6
27/03:30am 10.1 7.8 5.7 74 2.0 SSE 7 11 4 6 1023.9 1023.7 1.6
27/03:00am 10.0 8.0 6.2 77 1.8 SSE 6 9 3 5 1023.9 1023.7 1.6
27/02:30am 10.0 7.9 6.0 76 1.9 S 6 9 3 5 1024.2 1024.0 1.6
27/02:00am 9.0 6.7 5.7 80 1.5 SE 7 11 4 6 1024.2 1024.0 1.6
27/01:30am 9.7 7.6 5.9 77 1.8 S 6 9 3 5 1024.4 1024.2 1.6
27/01:00am 9.8 7.7 6.0 77 1.8 SSE 6 9 3 5 1024.7 1024.5 1.6
27/12:30am 10.4 8.4 6.4 76 1.9 SSE 6 9 3 5 1024.9 1024.6 1.6
27/12:00am 10.7 8.6 6.8 77 1.9 S 7 13 4 7 1025.1 1024.8 1.6
 
Date/Time
EDT
Tmp

°C
App
Tmp
°C
Dew
Point
°C
Rel
Hum
%
Delta-T

°C
Wind Press
QNH
hPa
Press
MSL
hPa
Rain
since
9 am
mm
Dir
 
Spd
km/h
Gust
km/h
Spd
kts
Gust
kts
26/11:30pm 11.0 9.2 7.9 81 1.5 SSE 7 13 4 7 1025.0 1024.7 1.6
26/11:00pm 11.2 9.6 8.6 84 1.3 SSE 7 9 4 5 1024.9 1024.6 1.6
26/10:30pm 11.4 10.0 9.0 85 1.2 SSE 6 9 3 5 1024.7 1024.5 1.6
26/10:00pm 11.4 10.1 9.1 86 1.2 SSE 6 11 3 6 1024.5 1024.3 1.6
26/09:30pm 11.6 9.9 9.7 88 1.0 SSE 9 13 5 7 1024.2 1024.0 1.6
26/09:00pm 11.5 10.6 10.6 94 0.5 E 6 7 3 4 1024.0 1023.8 1.6
26/08:30pm 11.5 11.0 10.7 95 0.4 ENE 4 6 2 3 1023.7 1023.5 1.6
26/08:00pm 11.5 10.6 10.7 95 0.4 ENE 6 9 3 5 1023.6 1023.4 1.6
26/07:30pm 11.7 10.7 11.1 96 0.3 ESE 7 9 4 5 1023.4 1023.2 1.4
26/07:00pm 11.8 10.5 11.2 96 0.3 SE 9 11 5 6 1023.2 1023.0 1.4
26/06:30pm 12.2 11.0 11.7 97 0.3 E 9 13 5 7 1022.8 1022.6 1.4
26/06:00pm 12.4 10.9 11.9 97 0.3 SE 11 15 6 8 1022.7 1022.5 1.4
26/05:30pm 12.4 10.9 11.9 97 0.3 SE 11 17 6 9 1022.5 1022.2 1.2
26/05:00pm 12.7 11.3 12.1 96 0.3 SSE 11 19 6 10 1022.4 1022.1 1.2
26/04:30pm 13.0 11.7 12.4 96 0.3 SSE 11 17 6 9 1022.3 1022.0 1.0
26/04:00pm 13.5 11.6 12.9 96 0.3 SSE 15 22 8 12 1022.2 1021.9 0.6
26/03:30pm 14.2 12.6 12.9 92 0.7 SSE 13 17 7 9 1022.1 1021.8 0.2
26/03:00pm 16.5 12.9 10.4 67 3.3 S 20 28 11 15 1021.8 1021.5 0.0
26/02:30pm 17.4 14.7 9.1 58 4.4 WSW 13 24 7 13 1021.8 1021.5 0.0
26/02:00pm 17.5 15.1 8.6 56 4.6 WSW 11 22 6 12 1021.9 1021.6 0.0
26/01:30pm 17.7 15.0 8.8 56 4.7 WSW 13 24 7 13 1021.8 1021.5 0.0
26/01:00pm 16.8 14.0 8.5 58 4.3 SW 13 22 7 12 1022.0 1021.7 0.0
26/12:30pm 18.6 15.9 9.1 54 5.0 WSW 13 24 7 13 1021.9 1021.6 0.0
26/12:00pm 16.6 13.4 8.3 58 4.3 WSW 15 22 8 12 1021.9 1021.6 0.0
26/11:30am 17.7 15.0 9.1 57 4.5 WSW 13 26 7 14 1022.0 1021.7 0.0
26/11:00am 15.9 12.0 8.6 62 3.7 W 19 28 10 15 1021.9 1021.6 0.0
26/10:30am 14.8 12.5 9.0 68 3.0 WSW 11 20 6 11 1021.9 1021.6 0.0
26/10:00am 14.5 11.7 8.5 67 3.0 WSW 13 20 7 11 1021.8 1021.5 0.0
26/09:30am 13.6 10.3 8.2 70 2.7 W 15 28 8 15 1021.9 1021.6 0.0
26/09:00am 12.5 9.1 7.8 73 2.3 W 15 26 8 14 1022.0 1021.7 0.0
26/08:30am 12.7 9.7 7.8 72 2.4 WSW 13 20 7 11 1021.7 1021.4 0.0
26/08:00am 11.7 8.6 7.4 75 2.1 W 13 19 7 10 1021.3 1021.0 0.0
26/07:30am 11.0 8.2 6.9 76 2.0 W 11 20 6 11 1021.1 1020.8 0.0
26/07:00am 9.2 7.0 6.3 82 1.4 NW 7 11 4 6 1021.0 1020.7 0.0
26/06:30am 9.1 6.5 6.0 81 1.4 WNW 9 13 5 7 1020.7 1020.4 0.0
26/06:00am 9.1 6.5 6.0 81 1.4 WNW 9 13 5 7 1020.5 1020.2 0.0
26/05:30am 8.7 6.1 6.2 84 1.2 WNW 9 13 5 7 1020.2 1020.0 0.0
26/05:00am 8.1 5.4 5.6 84 1.1 WNW 9 19 5 10 1020.1 1019.9 0.0
26/04:30am 7.7 5.5 6.0 89 0.8 NW 7 13 4 7 1020.1 1019.9 0.0
26/04:00am 7.2 4.5 5.5 89 0.8 NW 9 11 5 6 1020.1 1019.9 0.0
26/03:30am 7.2 4.8 5.2 87 0.9 NW 7 9 4 5 1020.2 1020.0 0.0
26/03:00am 7.4 4.6 5.2 86 1.0 NW 9 11 5 6 1020.2 1020.0 0.0
26/02:30am 7.5 5.1 5.3 86 1.0 NW 7 9 4 5 1020.3 1020.1 0.0
26/02:00am 8.3 5.6 5.8 84 1.1 NW 9 13 5 7 1020.6 1020.3 0.0
26/01:30am 8.3 5.6 5.6 83 1.2 NW 9 13 5 7 1021.0 1020.7 0.0
26/01:00am 8.5 5.8 5.6 82 1.3 NW 9 11 5 6 1021.2 1020.9 0.0
26/12:30am 8.3 6.0 5.6 83 1.2 NW 7 9 4 5 1021.5 1021.2 0.0
26/12:00am 8.3 6.0 5.6 83 1.2 NNW 7 9 4 5 1021.6 1021.3 0.0
 
Date/Time
EDT
Tmp

°C
App
Tmp
°C
Dew
Point
°C
Rel
Hum
%
Delta-T

°C
Wind Press
QNH
hPa
Press
MSL
hPa
Rain
since
9 am
mm
Dir
 
Spd
km/h
Gust
km/h
Spd
kts
Gust
kts
25/11:30pm 9.9 7.6 5.9 76 1.9 WNW 7 11 4 6 1021.7 1021.4 0.0
25/11:00pm 10.2 7.9 5.8 74 2.0 WNW 7 13 4 7 1021.9 1021.6 0.0
25/10:30pm 10.8 8.6 6.2 73 2.2 W 7 11 4 6 1021.9 1021.6 0.0
25/10:00pm 11.7 9.5 6.4 70 2.5 WSW 7 15 4 8 1021.9 1021.6 0.0
25/09:30pm 12.2 9.7 6.5 68 2.7 SW 9 19 5 10 1021.7 1021.4 0.0
25/09:00pm 12.7 10.2 6.7 67 2.9 WSW 9 17 5 9 1021.5 1021.2 0.0
25/08:30pm 13.2 9.9 6.3 63 3.3 SW 13 24 7 13 1021.1 1020.8 0.0
25/08:00pm 14.0 9.6 6.4 60 3.7 SW 19 26 10 14 1020.8 1020.5 0.0
25/07:30pm 15.0 11.4 6.6 57 4.1 SW 15 26 8 14 1020.2 1020.0 0.0

Latest Capital City Observations: Canberra | Sydney | Melbourne | Brisbane | Adelaide | Perth | Hobart | Darwin

Other Formats:

Comma delimited format used in spreadsheet applications
http://www.bom.gov.au/fwo/IDV60901/IDV60901.94863.axf

JavaScript Object Notation format (JSON) in row-major order
http://www.bom.gov.au/fwo/IDV60901/IDV60901.94863.json